createdAt,value
2022-12-04T00:01:08.216Z,50.33
2022-12-04T00:03:35.668Z,48.15
2022-12-04T00:06:13.183Z,47.03
2022-12-04T00:08:40.661Z,47.47
2022-12-04T00:11:09.278Z,47.58
2022-12-04T00:13:37.731Z,47.17
2022-12-04T00:16:06.351Z,40.60
2022-12-04T00:18:33.961Z,47.85
2022-12-04T00:21:05.169Z,47.70
2022-12-04T00:23:32.798Z,43.13
2022-12-04T00:26:05.516Z,46.92
2022-12-04T00:28:33.932Z,43.58
2022-12-04T00:31:04.739Z,42.72
2022-12-04T00:33:31.727Z,42.85
2022-12-04T00:35:59.404Z,48.28
2022-12-04T00:38:27.140Z,46.42
2022-12-04T00:40:54.640Z,45.28
2022-12-04T00:43:22.916Z,50.70
2022-12-04T00:45:50.673Z,41.97
2022-12-04T00:48:17.739Z,47.17
2022-12-04T00:50:44.950Z,49.97
2022-12-04T00:53:12.587Z,42.42
2022-12-04T00:55:40.810Z,54.85
2022-12-04T00:58:08.040Z,46.80
2022-12-04T01:00:36.527Z,45.78
2022-12-04T01:03:04.410Z,49.95
2022-12-04T01:05:32.373Z,46.15
2022-12-04T01:07:59.453Z,47.75
2022-12-04T01:10:26.740Z,45.72
2022-12-04T01:12:53.768Z,44.20
2022-12-04T01:15:20.788Z,47.80
2022-12-04T01:17:47.777Z,45.65
2022-12-04T01:20:15.859Z,43.72
2022-12-04T01:22:42.895Z,42.05
2022-12-04T01:25:10.203Z,50.00
2022-12-04T01:27:37.230Z,44.40
2022-12-04T01:30:05.383Z,38.47
2022-12-04T01:32:32.419Z,48.42
2022-12-04T01:34:59.518Z,43.58
2022-12-04T01:37:26.597Z,35.03
2022-12-04T01:39:53.913Z,39.60
2022-12-04T01:42:21.240Z,39.50
2022-12-04T01:45:26.031Z,44.35
2022-12-04T01:47:57.169Z,37.70
2022-12-04T01:50:24.966Z,40.20
2022-12-04T01:52:52.086Z,36.33
2022-12-04T01:55:19.192Z,39.75
2022-12-04T01:57:47.111Z,39.60
2022-12-04T02:00:16.750Z,38.47
2022-12-04T02:02:46.917Z,29.33
2022-12-04T02:05:17.535Z,35.90
2022-12-04T02:07:47.721Z,37.45
2022-12-04T02:10:17.530Z,31.95
2022-12-04T02:12:51.561Z,31.65
2022-12-04T02:15:48.593Z,34.83
2022-12-04T02:18:24.467Z,27.73
2022-12-04T02:21:06.769Z,33.78
2022-12-04T02:24:01.352Z,40.83
2022-12-04T02:26:50.144Z,32.55
2022-12-04T02:29:34.973Z,35.92
2022-12-04T02:32:29.275Z,35.92
2022-12-04T02:35:01.286Z,42.05
2022-12-04T02:37:37.324Z,44.72
2022-12-04T02:40:10.387Z,35.08
2022-12-04T02:42:50.064Z,39.63
2022-12-04T02:45:31.897Z,42.05
2022-12-04T02:48:02.597Z,42.28
2022-12-04T02:50:31.705Z,40.97
2022-12-04T02:53:07.906Z,43.10
2022-12-04T02:55:44.210Z,42.47
2022-12-04T02:58:35.107Z,48.85
2022-12-04T03:01:18.241Z,38.30
2022-12-04T03:03:57.471Z,45.17
2022-12-04T03:06:27.450Z,39.45
2022-12-04T03:09:01.950Z,37.95
2022-12-04T03:11:34.322Z,35.72
2022-12-04T03:14:14.430Z,35.33
2022-12-04T03:16:42.651Z,37.38
2022-12-04T03:19:10.138Z,42.63
2022-12-04T03:21:41.880Z,38.97
2022-12-04T03:24:37.120Z,41.60
2022-12-04T03:27:09.160Z,38.75
2022-12-04T03:29:41.456Z,34.33
2022-12-04T03:32:13.351Z,33.78
2022-12-04T03:34:46.498Z,35.28
2022-12-04T03:37:20.310Z,34.08
2022-12-04T03:40:30.926Z,40.65
2022-12-04T03:43:14.105Z,33.47
2022-12-04T03:45:53.046Z,34.78
2022-12-04T03:48:28.594Z,26.25
2022-12-04T03:51:12.607Z,32.28
2022-12-04T03:53:52.820Z,27.40
2022-12-04T03:56:40.017Z,35.15
2022-12-04T03:59:20.888Z,29.80
2022-12-04T04:01:51.106Z,35.08
2022-12-04T04:04:36.124Z,41.03
2022-12-04T04:07:13.967Z,41.55
2022-12-04T04:09:45.667Z,39.65
2022-12-04T04:12:18.501Z,38.60
2022-12-04T04:15:32.717Z,39.10
2022-12-04T04:18:20.304Z,36.83
2022-12-04T04:21:19.003Z,41.20
2022-12-04T04:24:09.320Z,46.40
2022-12-04T04:26:42.313Z,40.40
2022-12-04T04:29:11.041Z,45.55
2022-12-04T04:32:13.717Z,36.20
2022-12-04T04:34:54.465Z,41.65
2022-12-04T04:37:30.457Z,41.60
2022-12-04T04:40:15.603Z,40.08
2022-12-04T04:42:51.201Z,41.72
2022-12-04T04:45:35.759Z,40.20
2022-12-04T04:48:28.421Z,44.90
2022-12-04T04:50:55.958Z,42.58
2022-12-04T04:53:31.320Z,42.53
2022-12-04T04:55:59.668Z,42.75
2022-12-04T04:58:26.671Z,50.78
2022-12-04T05:00:58.440Z,43.03
2022-12-04T05:03:26.479Z,41.83
2022-12-04T05:05:53.466Z,40.30
2022-12-04T05:08:20.930Z,44.40
2022-12-04T05:10:48.078Z,41.15
2022-12-04T05:13:15.876Z,44.10
2022-12-04T05:15:43.009Z,43.22
2022-12-04T05:18:10.968Z,42.08
2022-12-04T05:20:41.250Z,44.05
2022-12-04T05:23:08.264Z,39.83
2022-12-04T05:25:35.219Z,39.70
2022-12-04T05:28:02.179Z,39.00
2022-12-04T05:30:29.247Z,38.35
2022-12-04T05:32:56.222Z,41.35
2022-12-04T05:35:23.162Z,45.58
2022-12-04T05:37:50.160Z,38.90
2022-12-04T05:40:17.401Z,40.78
2022-12-04T05:42:44.446Z,36.65
2022-12-04T05:45:11.622Z,46.10
2022-12-04T05:47:43.507Z,37.10
2022-12-04T05:50:12.395Z,39.38
2022-12-04T05:52:39.408Z,41.35
2022-12-04T05:55:07.024Z,46.13
2022-12-04T05:57:34.060Z,34.58
2022-12-04T06:00:01.067Z,39.92
2022-12-04T06:02:28.089Z,44.03
2022-12-04T06:04:55.095Z,42.15
2022-12-04T06:07:22.174Z,44.80
2022-12-04T06:09:49.161Z,39.88
2022-12-04T06:12:16.222Z,42.40
2022-12-04T06:14:43.204Z,40.88
2022-12-04T06:17:10.139Z,38.97
2022-12-04T06:19:37.222Z,36.92
2022-12-04T06:22:04.171Z,45.28
2022-12-04T06:24:31.392Z,37.30
2022-12-04T06:29:46.588Z,41.80
2022-12-04T06:32:19.501Z,38.97
2022-12-04T06:34:53.189Z,42.08
2022-12-04T06:37:21.991Z,40.53
2022-12-04T06:39:49.274Z,36.97
2022-12-04T06:42:16.804Z,38.88
2022-12-04T06:44:43.835Z,42.40
2022-12-04T06:47:11.026Z,40.78
2022-12-04T06:49:38.454Z,37.03
2022-12-04T06:52:05.443Z,42.38
2022-12-04T06:54:32.447Z,44.90
2022-12-04T06:56:59.570Z,37.15
2022-12-04T06:59:26.697Z,44.70
2022-12-04T07:01:53.692Z,39.35
2022-12-04T07:04:21.130Z,40.83
2022-12-04T07:06:48.104Z,37.53
2022-12-04T07:09:17.154Z,41.65
2022-12-04T07:11:45.356Z,35.85
2022-12-04T07:14:13.459Z,41.67
2022-12-04T07:16:42.365Z,40.88
2022-12-04T07:19:14.257Z,46.13
2022-12-04T07:21:42.548Z,50.42
2022-12-04T07:24:16.404Z,32.42
2022-12-04T07:26:43.560Z,38.22
2022-12-04T07:29:10.905Z,43.35
2022-12-04T07:31:38.767Z,39.70
2022-12-04T07:34:06.055Z,40.85
2022-12-04T07:36:33.133Z,41.25
2022-12-04T07:39:00.303Z,37.42
2022-12-04T07:41:27.300Z,34.83
2022-12-04T07:43:55.037Z,43.88
2022-12-04T07:46:25.531Z,46.83
2022-12-04T07:48:53.028Z,37.20
2022-12-04T07:51:22.680Z,45.20
2022-12-04T07:53:51.452Z,38.28
2022-12-04T07:56:19.256Z,37.35
2022-12-04T07:58:46.941Z,41.22
2022-12-04T08:01:17.798Z,46.70
2022-12-04T08:03:48.453Z,33.25
2022-12-04T08:06:19.198Z,42.95
2022-12-04T08:08:47.457Z,40.75
2022-12-04T08:11:17.959Z,34.20
2022-12-04T08:13:45.504Z,40.42
2022-12-04T08:16:13.478Z,36.65
2022-12-04T08:18:41.728Z,35.88
2022-12-04T08:21:14.395Z,44.08
2022-12-04T08:23:43.930Z,38.92
2022-12-04T08:26:11.933Z,37.17
2022-12-04T08:28:40.288Z,41.95
2022-12-04T08:31:13.134Z,39.40
2022-12-04T08:33:41.193Z,39.25
2022-12-04T08:36:10.347Z,31.63
2022-12-04T08:38:37.577Z,32.90
2022-12-04T08:41:07.229Z,43.92
2022-12-04T08:43:35.149Z,37.92
2022-12-04T08:46:08.149Z,49.72
2022-12-04T08:48:35.366Z,36.10
2022-12-04T08:51:04.506Z,44.78
2022-12-04T08:53:32.536Z,34.13
2022-12-04T08:56:01.735Z,43.45
2022-12-04T08:58:29.402Z,36.97
2022-12-04T09:01:00.256Z,37.53
2022-12-04T09:03:30.979Z,36.97
2022-12-04T09:06:04.520Z,36.97
2022-12-04T09:08:33.597Z,38.17
2022-12-04T09:11:09.745Z,33.72
2022-12-04T09:13:44.026Z,39.13
2022-12-04T09:16:15.414Z,36.20
2022-12-04T09:18:46.941Z,32.78
2022-12-04T09:21:17.042Z,37.03
2022-12-04T09:23:45.897Z,33.40
2022-12-04T09:26:29.410Z,32.15
2022-12-04T09:29:00.357Z,33.95
2022-12-04T09:31:28.463Z,40.50
2022-12-04T09:34:01.266Z,33.80
2022-12-04T09:36:29.625Z,37.10
2022-12-04T09:38:59.350Z,31.83
2022-12-04T09:41:45.340Z,32.22
2022-12-04T09:44:29.172Z,29.15
2022-12-04T09:47:14.812Z,33.20
2022-12-04T09:50:08.896Z,31.45
2022-12-04T09:52:56.932Z,28.52
2022-12-04T09:55:34.207Z,38.58
2022-12-04T09:58:05.444Z,31.33
2022-12-04T10:00:39.135Z,32.00
2022-12-04T10:03:13.098Z,31.00
2022-12-04T10:06:27.826Z,29.50
2022-12-04T10:09:06.299Z,29.75
2022-12-04T10:11:46.576Z,26.85
2022-12-04T10:14:51.112Z,32.55
2022-12-04T10:17:30.854Z,27.15
2022-12-04T10:20:41.492Z,29.42
2022-12-04T10:23:27.414Z,33.92
2022-12-04T10:25:56.017Z,29.73
2022-12-04T10:28:37.131Z,28.40
2022-12-04T10:31:07.887Z,31.10
2022-12-04T10:33:43.907Z,30.70
2022-12-04T10:36:16.771Z,33.25
2022-12-04T10:39:00.519Z,28.83
2022-12-04T10:41:53.164Z,27.77
2022-12-04T10:44:21.034Z,24.63
2022-12-04T10:46:49.589Z,33.08
2022-12-04T10:49:24.307Z,28.63
2022-12-04T10:51:51.322Z,30.23
2022-12-04T10:54:23.078Z,29.85
2022-12-04T10:56:58.739Z,26.48
2022-12-04T10:59:27.355Z,31.02
2022-12-04T11:02:06.735Z,30.65
2022-12-04T11:04:36.071Z,26.67
2022-12-04T11:07:37.308Z,30.40
2022-12-04T11:10:22.128Z,29.65
2022-12-04T11:13:16.608Z,30.15
2022-12-04T11:15:51.571Z,29.20
2022-12-04T11:18:31.112Z,21.50
2022-12-04T11:21:04.805Z,28.45
2022-12-04T11:23:47.597Z,28.35
2022-12-04T11:26:16.975Z,26.60
2022-12-04T11:28:54.069Z,28.02
2022-12-04T11:31:24.656Z,26.95
2022-12-04T11:33:59.347Z,28.02
2022-12-04T11:36:44.929Z,24.33
2022-12-04T11:39:31.657Z,25.98
2022-12-04T11:42:06.847Z,27.17
2022-12-04T11:44:37.391Z,24.95
2022-12-04T11:47:07.412Z,30.70
2022-12-04T11:49:39.525Z,29.33
2022-12-04T11:52:34.747Z,26.90
2022-12-04T11:55:13.121Z,22.42
2022-12-04T11:57:47.139Z,25.05
2022-12-04T12:00:26.551Z,32.33
2022-12-04T12:03:03.725Z,25.33
2022-12-04T12:05:49.574Z,26.17
2022-12-04T12:08:31.705Z,28.80
2022-12-04T12:11:26.790Z,29.42
2022-12-04T12:14:22.854Z,27.55
2022-12-04T12:17:17.775Z,25.45
2022-12-04T12:20:15.838Z,24.45
2022-12-04T12:22:52.306Z,23.95
2022-12-04T12:25:19.334Z,27.45
2022-12-04T12:27:55.582Z,24.83
2022-12-04T12:30:25.147Z,24.88
2022-12-04T12:33:04.406Z,29.98
2022-12-04T12:35:44.975Z,27.90
2022-12-04T12:38:47.817Z,28.23
2022-12-04T12:41:24.101Z,26.75
2022-12-04T12:44:06.489Z,26.60
2022-12-04T12:47:01.958Z,21.20
2022-12-04T12:49:40.175Z,25.00
2022-12-04T12:52:29.365Z,23.42
2022-12-04T12:55:05.357Z,24.27
2022-12-04T12:57:40.306Z,23.92
2022-12-04T13:00:16.490Z,22.20
2022-12-04T13:03:06.529Z,30.85
2022-12-04T13:05:44.149Z,28.40
2022-12-04T13:08:23.383Z,27.17
2022-12-04T13:11:18.102Z,28.90
2022-12-04T13:13:53.243Z,26.10
2022-12-04T13:16:27.137Z,28.30
2022-12-04T13:19:09.279Z,24.02
2022-12-04T13:21:45.636Z,27.73
2022-12-04T13:24:42.707Z,29.77
2022-12-04T13:27:29.274Z,27.35
2022-12-04T13:30:17.306Z,25.50
2022-12-04T13:33:14.642Z,23.13
2022-12-04T13:36:04.151Z,23.50
2022-12-04T13:38:33.886Z,21.75
2022-12-04T13:41:07.109Z,22.25
2022-12-04T13:43:42.016Z,20.45
2022-12-04T13:46:40.377Z,22.60
2022-12-04T13:49:17.872Z,18.85
2022-12-04T13:51:51.486Z,19.80
2022-12-04T13:54:20.994Z,18.92
2022-12-04T13:56:57.956Z,15.23
2022-12-04T13:59:28.367Z,20.27
2022-12-04T14:02:17.218Z,20.13
2022-12-04T14:05:01.284Z,15.35
2022-12-04T14:07:34.016Z,16.55
2022-12-04T14:10:09.298Z,19.33
2022-12-04T14:12:41.573Z,14.70
2022-12-04T14:15:25.145Z,21.33
2022-12-04T14:18:11.225Z,16.10
2022-12-04T14:20:42.629Z,17.52
2022-12-04T14:23:23.192Z,16.80
2022-12-04T14:25:51.622Z,15.05
2022-12-04T14:28:38.662Z,14.52
2022-12-04T14:31:09.232Z,17.05
2022-12-04T14:33:44.440Z,15.18
2022-12-04T14:36:37.632Z,14.60
2022-12-04T14:39:08.217Z,15.32
2022-12-04T14:41:35.619Z,15.88
2022-12-04T14:44:03.639Z,19.88
2022-12-04T14:46:34.623Z,18.35
2022-12-04T14:49:23.594Z,16.38
2022-12-04T14:52:01.802Z,20.58
2022-12-04T14:54:38.387Z,17.33
2022-12-04T14:57:33.717Z,19.10
2022-12-04T15:00:02.182Z,17.38
2022-12-04T15:02:34.741Z,18.58
2022-12-04T15:05:03.567Z,18.60
2022-12-04T15:07:33.699Z,16.73
2022-12-04T15:10:30.060Z,23.55
2022-12-04T15:12:57.511Z,17.02
2022-12-04T15:15:28.615Z,18.85
2022-12-04T15:18:18.132Z,16.33
2022-12-04T15:20:49.201Z,22.20
2022-12-04T15:23:34.278Z,21.45
2022-12-04T15:26:23.342Z,17.92
2022-12-04T15:29:01.689Z,18.95
2022-12-04T15:31:39.349Z,17.65
2022-12-04T15:34:15.327Z,20.35
2022-12-04T15:37:08.101Z,19.20
2022-12-04T15:39:38.654Z,17.20
2022-12-04T15:42:25.205Z,18.67
2022-12-04T15:45:02.441Z,18.52
2022-12-04T15:47:43.449Z,17.98
2022-12-04T15:50:32.530Z,15.65
2022-12-04T15:53:05.956Z,15.13
2022-12-04T15:55:54.898Z,16.25
2022-12-04T15:58:29.805Z,16.23
2022-12-04T16:01:06.815Z,16.80
2022-12-04T16:03:38.179Z,18.02
2022-12-04T16:06:25.269Z,20.77
2022-12-04T16:09:01.122Z,19.70
2022-12-04T16:11:36.098Z,18.55
2022-12-04T16:14:08.689Z,19.88
2022-12-04T16:16:49.080Z,23.67
2022-12-04T16:19:25.690Z,19.80
2022-12-04T16:21:53.647Z,16.92
2022-12-04T16:24:22.294Z,23.00
2022-12-04T16:26:57.626Z,18.80
2022-12-04T16:29:25.566Z,17.88
2022-12-04T16:32:03.231Z,19.77
2022-12-04T16:34:31.788Z,17.25
2022-12-04T16:37:00.460Z,20.98
2022-12-04T16:39:28.447Z,20.52
2022-12-04T16:41:55.893Z,20.02
2022-12-04T16:44:23.814Z,19.23
2022-12-04T16:46:52.588Z,17.65
2022-12-04T16:49:20.163Z,15.73
2022-12-04T16:51:51.607Z,18.65
2022-12-04T16:54:21.789Z,18.08
2022-12-04T16:56:49.748Z,17.38
2022-12-04T16:59:17.383Z,18.02
2022-12-04T17:01:49.091Z,17.45
2022-12-04T17:04:18.554Z,16.75
2022-12-04T17:06:46.876Z,20.23
2022-12-04T17:09:15.611Z,19.58
2022-12-04T17:11:45.568Z,17.58
2022-12-04T17:14:16.156Z,16.90
2022-12-04T17:16:45.846Z,18.45
2022-12-04T17:19:14.721Z,21.52
2022-12-04T17:21:42.356Z,25.23
2022-12-04T17:24:10.426Z,18.70
2022-12-04T17:26:38.548Z,16.63
2022-12-04T17:29:05.991Z,17.63
2022-12-04T17:31:33.597Z,21.55
2022-12-04T17:34:02.807Z,20.30
2022-12-04T17:36:35.256Z,21.40
2022-12-04T17:39:03.309Z,21.98
2022-12-04T17:41:31.238Z,21.27
2022-12-04T17:44:01.726Z,24.00
2022-12-04T17:46:29.734Z,22.10
2022-12-04T17:49:01.579Z,21.52
2022-12-04T17:51:32.731Z,19.73
2022-12-04T17:54:00.158Z,22.90
2022-12-04T17:56:29.282Z,21.52
2022-12-04T17:58:58.132Z,20.08
2022-12-04T18:01:29.975Z,21.65
2022-12-04T18:04:06.986Z,17.05
2022-12-04T18:06:37.788Z,19.60
2022-12-04T18:09:07.343Z,19.98
2022-12-04T18:11:36.959Z,23.45
2022-12-04T18:14:12.894Z,19.75
2022-12-04T18:16:49.565Z,20.05
2022-12-04T18:19:17.521Z,24.33
2022-12-04T18:21:45.090Z,26.90
2022-12-04T18:24:14.694Z,24.35
2022-12-04T18:26:45.348Z,23.45
2022-12-04T18:29:16.284Z,24.98
2022-12-04T18:31:44.336Z,22.13
2022-12-04T18:34:12.494Z,25.90
2022-12-04T18:36:42.894Z,22.52
2022-12-04T18:39:18.562Z,23.65
2022-12-04T18:41:47.554Z,21.40
2022-12-04T18:44:17.076Z,24.77
2022-12-04T18:46:45.095Z,25.00
2022-12-04T18:49:14.337Z,27.25
2022-12-04T18:51:49.167Z,23.75
2022-12-04T18:54:23.351Z,23.35
2022-12-04T18:56:52.663Z,22.25
2022-12-04T18:59:25.643Z,24.88
2022-12-04T19:01:54.755Z,25.98
2022-12-04T19:04:24.551Z,21.98
2022-12-04T19:06:55.067Z,24.38
2022-12-04T19:09:47.135Z,25.17
2022-12-04T19:12:14.435Z,21.80
2022-12-04T19:14:45.976Z,22.38
2022-12-04T19:17:14.222Z,19.17
2022-12-04T19:19:43.643Z,22.85
2022-12-04T19:22:11.677Z,23.45
2022-12-04T19:24:40.071Z,23.90
2022-12-04T19:27:12.387Z,19.75
2022-12-04T19:29:42.103Z,26.48
2022-12-04T19:32:12.644Z,21.38
2022-12-04T19:34:41.372Z,21.83
2022-12-04T19:37:09.460Z,19.65
2022-12-04T19:39:38.880Z,23.40
2022-12-04T19:42:08.124Z,22.48
2022-12-04T19:44:52.236Z,26.30
2022-12-04T19:47:20.368Z,22.45
2022-12-04T19:49:48.934Z,21.85
2022-12-04T19:52:17.842Z,21.15
2022-12-04T19:54:47.948Z,23.40
2022-12-04T19:57:16.961Z,23.70
2022-12-04T19:59:46.812Z,29.45
2022-12-04T20:02:18.291Z,22.83
2022-12-04T20:04:55.549Z,22.33
2022-12-04T20:07:25.354Z,22.17
2022-12-04T20:09:55.790Z,23.48
2022-12-04T20:12:25.349Z,28.88
2022-12-04T20:14:54.989Z,21.42
2022-12-04T20:17:23.121Z,25.60
2022-12-04T20:19:52.036Z,25.75
2022-12-04T20:22:21.506Z,21.70
2022-12-04T20:24:49.559Z,22.42
2022-12-04T20:27:17.750Z,25.15
2022-12-04T20:29:45.544Z,29.42
2022-12-04T20:32:13.903Z,23.73
2022-12-04T20:34:43.807Z,23.02
2022-12-04T20:37:11.929Z,20.00
2022-12-04T20:39:40.979Z,24.10
2022-12-04T20:42:10.481Z,23.88
2022-12-04T20:44:38.364Z,21.92
2022-12-04T20:47:06.218Z,22.60
2022-12-04T20:49:34.751Z,24.42
2022-12-04T20:52:03.001Z,20.52
2022-12-04T20:54:30.444Z,25.08
2022-12-04T20:56:58.243Z,24.45
2022-12-04T20:59:27.424Z,26.98
2022-12-04T21:01:56.822Z,25.70
2022-12-04T21:04:24.553Z,24.90
2022-12-04T21:06:52.398Z,22.75
2022-12-04T21:09:23.494Z,24.83
2022-12-04T21:11:55.055Z,23.80
2022-12-04T21:14:50.958Z,22.90
2022-12-04T21:17:19.738Z,25.83
2022-12-04T21:19:49.849Z,22.83
2022-12-04T21:22:18.718Z,21.60
2022-12-04T21:24:47.440Z,24.08
2022-12-04T21:27:20.472Z,28.60
2022-12-04T21:29:48.434Z,23.10
2022-12-04T21:32:15.994Z,23.38
2022-12-04T21:34:43.169Z,23.73
2022-12-04T21:37:10.174Z,21.67
2022-12-04T21:39:37.473Z,24.48
2022-12-04T21:42:23.306Z,25.15
2022-12-04T21:44:50.302Z,24.05
2022-12-04T21:47:17.322Z,20.58
2022-12-04T21:49:44.316Z,19.95
2022-12-04T21:52:11.294Z,18.67
2022-12-04T21:54:38.342Z,23.40
2022-12-04T21:57:05.342Z,16.92
2022-12-04T21:59:32.472Z,18.00
2022-12-04T22:01:59.576Z,18.20
2022-12-04T22:04:27.045Z,14.60
2022-12-04T22:06:54.048Z,17.60
2022-12-04T22:09:21.134Z,18.92
2022-12-04T22:11:48.255Z,18.15
2022-12-04T22:14:15.412Z,16.27
2022-12-04T22:16:43.419Z,17.27
2022-12-04T22:19:12.251Z,15.80
2022-12-04T22:21:39.900Z,15.18
2022-12-04T22:24:07.520Z,13.75
2022-12-04T22:26:34.627Z,15.15
2022-12-04T22:29:03.161Z,12.52
2022-12-04T22:31:32.553Z,15.55
2022-12-04T22:34:01.587Z,13.02
2022-12-04T22:36:32.863Z,16.38
2022-12-04T22:39:15.482Z,14.50
2022-12-04T22:41:42.561Z,17.13
2022-12-04T22:44:09.526Z,14.02
2022-12-04T22:46:36.612Z,13.20
2022-12-04T22:49:03.743Z,14.65
2022-12-04T22:51:30.911Z,15.52
2022-12-04T22:53:58.616Z,13.48
2022-12-04T22:56:31.181Z,14.48
2022-12-04T22:58:59.599Z,18.88
2022-12-04T23:01:31.554Z,15.60
2022-12-04T23:03:59.687Z,15.85
2022-12-04T23:06:29.013Z,16.88
2022-12-04T23:09:13.011Z,12.50
2022-12-04T23:11:40.903Z,14.65
2022-12-04T23:14:11.586Z,13.57
2022-12-04T23:16:40.164Z,14.15
2022-12-04T23:19:09.472Z,13.98
2022-12-04T23:21:36.434Z,17.35
2022-12-04T23:24:04.019Z,12.95
2022-12-04T23:26:42.587Z,16.83
2022-12-04T23:29:29.620Z,12.27
2022-12-04T23:31:57.487Z,12.65
2022-12-04T23:34:24.756Z,14.65
2022-12-04T23:36:51.708Z,17.83
2022-12-04T23:39:18.666Z,14.45
2022-12-04T23:41:45.655Z,13.00
2022-12-04T23:44:12.678Z,16.60
2022-12-04T23:46:40.120Z,13.90
2022-12-04T23:49:07.101Z,14.85
2022-12-04T23:51:34.105Z,18.27
2022-12-04T23:54:01.161Z,12.27
2022-12-04T23:56:28.948Z,12.55
2022-12-04T23:58:58.472Z,13.90
